createdAt,value
2019-04-10T00:01:34.037Z,37.48
2019-04-10T00:04:07.120Z,37.85
2019-04-10T00:06:38.115Z,43.78
2019-04-10T00:09:10.401Z,39.25
2019-04-10T00:11:43.202Z,43.13
2019-04-10T00:14:16.385Z,38.05
2019-04-10T00:16:48.756Z,36.70
2019-04-10T00:19:20.327Z,36.48
2019-04-10T00:21:51.575Z,36.40
2019-04-10T00:24:22.641Z,38.55
2019-04-10T00:26:54.294Z,41.80
2019-04-10T00:29:27.917Z,40.08
2019-04-10T00:32:01.677Z,42.33
2019-04-10T00:34:34.293Z,37.28
2019-04-10T00:37:05.770Z,37.70
2019-04-10T00:39:37.198Z,33.13
2019-04-10T00:42:08.493Z,38.73
2019-04-10T00:44:43.796Z,36.42
2019-04-10T00:47:19.196Z,37.38
2019-04-10T00:49:50.883Z,43.17
2019-04-10T00:52:23.998Z,33.95
2019-04-10T00:54:57.405Z,37.23
2019-04-10T00:57:29.538Z,41.10
2019-04-10T01:00:02.159Z,34.50
2019-04-10T01:02:33.243Z,36.77
2019-04-10T01:05:04.109Z,32.75
2019-04-10T01:07:39.801Z,34.48
2019-04-10T01:10:10.246Z,30.82
2019-04-10T01:12:43.997Z,27.93
2019-04-10T01:15:15.344Z,31.07
2019-04-10T01:17:49.259Z,27.25
2019-04-10T01:20:20.383Z,35.60
2019-04-10T01:22:51.958Z,31.40
2019-04-10T01:25:24.124Z,33.60
2019-04-10T01:27:56.310Z,27.58
2019-04-10T01:30:28.535Z,32.15
2019-04-10T01:33:00.655Z,30.92
2019-04-10T01:35:32.117Z,27.82
2019-04-10T01:38:05.864Z,33.33
2019-04-10T01:40:37.281Z,34.65
2019-04-10T01:43:13.380Z,30.45
2019-04-10T01:45:42.553Z,40.80
2019-04-10T01:48:17.459Z,28.60
2019-04-10T01:50:48.649Z,25.72
2019-04-10T01:53:19.945Z,32.67
2019-04-10T01:55:53.386Z,29.27
2019-04-10T01:58:25.546Z,31.10
2019-04-10T02:00:59.628Z,27.45
2019-04-10T02:03:30.933Z,29.45
2019-04-10T02:06:03.143Z,29.07
2019-04-10T02:08:34.268Z,24.12
2019-04-10T02:11:06.837Z,31.35
2019-04-10T02:13:41.521Z,26.10
2019-04-10T02:16:12.517Z,27.30
2019-04-10T02:18:45.725Z,26.75
2019-04-10T02:21:17.898Z,28.70
2019-04-10T02:23:50.564Z,22.25
2019-04-10T02:26:23.082Z,21.48
2019-04-10T02:28:55.485Z,25.57
2019-04-10T02:31:28.581Z,21.75
2019-04-10T02:34:01.608Z,20.52
2019-04-10T02:36:34.387Z,29.72
2019-04-10T02:39:19.460Z,24.50
2019-04-10T02:41:41.863Z,25.02
2019-04-10T02:44:13.328Z,23.27
2019-04-10T02:46:45.134Z,22.75
2019-04-10T02:49:16.375Z,23.27
2019-04-10T02:51:47.684Z,22.25
2019-04-10T02:54:21.300Z,23.73
2019-04-10T02:56:54.705Z,24.95
2019-04-10T02:59:26.866Z,21.80
2019-04-10T03:01:59.817Z,20.75
2019-04-10T03:04:31.070Z,24.25
2019-04-10T03:07:03.799Z,23.73
2019-04-10T03:09:49.510Z,22.65
2019-04-10T03:12:08.503Z,20.43
2019-04-10T03:14:41.562Z,22.85
2019-04-10T03:17:14.153Z,22.25
2019-04-10T03:19:46.639Z,21.60
2019-04-10T03:22:20.829Z,26.45
2019-04-10T03:24:57.917Z,22.58
2019-04-10T03:27:30.393Z,28.45
2019-04-10T03:30:02.940Z,29.30
2019-04-10T03:32:37.132Z,20.55
2019-04-10T03:35:10.273Z,24.40
2019-04-10T03:37:42.935Z,26.85
2019-04-10T03:40:14.054Z,23.27
2019-04-10T03:42:47.523Z,23.65
2019-04-10T03:45:20.117Z,23.15
2019-04-10T03:47:52.944Z,23.85
2019-04-10T03:50:26.069Z,25.72
2019-04-10T03:53:00.078Z,20.90
2019-04-10T03:55:31.159Z,21.57
2019-04-10T03:58:03.064Z,20.57
2019-04-10T04:00:34.268Z,20.65
2019-04-10T04:03:06.412Z,22.75
2019-04-10T04:05:37.408Z,21.65
2019-04-10T04:08:08.393Z,22.45
2019-04-10T04:10:40.287Z,30.90
2019-04-10T04:13:12.252Z,27.82
2019-04-10T04:15:44.338Z,26.62
2019-04-10T04:18:15.325Z,18.48
2019-04-10T04:20:51.112Z,26.68
2019-04-10T04:23:22.044Z,22.70
2019-04-10T04:25:54.745Z,21.82
2019-04-10T04:31:40.506Z,20.85
2019-04-10T04:34:12.389Z,23.83
2019-04-10T04:36:45.135Z,22.32
2019-04-10T04:39:24.035Z,22.25
2019-04-10T04:41:50.079Z,21.10
2019-04-10T04:44:22.195Z,25.12
2019-04-10T04:46:53.720Z,19.85
2019-04-10T04:49:24.730Z,24.50
2019-04-10T04:51:58.890Z,22.62
2019-04-10T04:54:30.916Z,21.12
2019-04-10T04:57:02.402Z,24.23
2019-04-10T04:59:34.509Z,21.77
2019-04-10T05:02:05.887Z,19.75
2019-04-10T05:04:39.510Z,25.27
2019-04-10T05:07:13.571Z,22.82
2019-04-10T05:09:48.148Z,22.02
2019-04-10T05:12:20.082Z,22.05
2019-04-10T05:14:51.598Z,22.60
2019-04-10T05:17:22.726Z,20.50
2019-04-10T05:19:54.572Z,21.42
2019-04-10T05:22:26.454Z,24.27
2019-04-10T05:24:57.803Z,24.20
2019-04-10T05:27:28.986Z,23.47
2019-04-10T05:30:02.306Z,22.05
2019-04-10T05:32:34.037Z,19.95
2019-04-10T05:35:08.388Z,22.62
2019-04-10T05:37:38.535Z,21.85
2019-04-10T05:40:09.809Z,19.75
2019-04-10T05:42:42.201Z,21.02
2019-04-10T05:45:17.041Z,19.07
2019-04-10T05:47:50.731Z,23.75
2019-04-10T05:50:21.749Z,23.12
2019-04-10T05:52:53.851Z,17.73
2019-04-10T05:55:26.932Z,22.35
2019-04-10T05:57:58.000Z,21.70
2019-04-10T06:00:32.660Z,17.95
2019-04-10T06:03:03.936Z,21.20
2019-04-10T06:05:35.097Z,20.17
2019-04-10T06:08:06.064Z,24.75
2019-04-10T06:10:37.157Z,23.30
2019-04-10T06:13:10.943Z,18.07
2019-04-10T06:15:41.217Z,21.05
2019-04-10T06:18:13.648Z,20.92
2019-04-10T06:20:45.269Z,19.30
2019-04-10T06:23:17.725Z,19.73
2019-04-10T06:25:51.973Z,19.98
2019-04-10T06:28:25.712Z,25.23
2019-04-10T06:30:58.654Z,28.20
2019-04-10T06:33:29.799Z,18.87
2019-04-10T06:36:00.893Z,25.40
2019-04-10T06:38:32.085Z,21.60
2019-04-10T06:41:03.159Z,19.00
2019-04-10T06:43:35.486Z,19.32
2019-04-10T06:46:06.890Z,21.65
2019-04-10T06:48:38.443Z,22.22
2019-04-10T06:51:10.388Z,24.98
2019-04-10T06:53:41.469Z,17.42
2019-04-10T06:56:13.238Z,21.60
2019-04-10T06:58:48.336Z,24.18
2019-04-10T07:01:22.375Z,22.50
2019-04-10T07:04:01.715Z,22.93
2019-04-10T07:06:39.375Z,23.70
2019-04-10T07:08:59.095Z,27.05
2019-04-10T07:11:32.690Z,17.70
2019-04-10T07:14:04.899Z,18.35
2019-04-10T07:16:37.322Z,22.95
2019-04-10T07:19:10.385Z,22.27
2019-04-10T07:21:42.654Z,17.30
2019-04-10T07:24:15.149Z,17.85
2019-04-10T07:26:57.698Z,22.15
2019-04-10T07:29:36.244Z,15.25
2019-04-10T07:34:42.759Z,15.05
2019-04-10T07:37:17.737Z,14.95
2019-04-10T07:39:46.770Z,21.80
2019-04-10T07:42:27.388Z,22.35
2019-04-10T07:44:56.269Z,17.48
2019-04-10T07:47:25.791Z,20.23
2019-04-10T07:50:00.799Z,18.37
2019-04-10T07:52:31.124Z,17.75
2019-04-10T07:55:02.226Z,17.30
2019-04-10T07:57:33.438Z,18.57
2019-04-10T08:00:08.906Z,16.60
2019-04-10T08:02:39.078Z,17.87
2019-04-10T08:05:13.307Z,15.45
2019-04-10T08:07:48.386Z,15.75
2019-04-10T08:10:20.004Z,15.83
2019-04-10T08:12:53.875Z,17.50
2019-04-10T08:15:25.188Z,16.85
2019-04-10T08:17:56.187Z,15.63
2019-04-10T08:20:28.433Z,17.85
2019-04-10T08:22:59.834Z,16.60
2019-04-10T08:25:31.115Z,17.77
2019-04-10T08:28:02.798Z,16.55
2019-04-10T08:30:34.188Z,16.42
2019-04-10T08:33:06.131Z,16.07
2019-04-10T08:35:37.833Z,15.63
2019-04-10T08:38:09.939Z,19.67
2019-04-10T08:40:41.488Z,15.98
2019-04-10T08:43:15.870Z,19.90
2019-04-10T08:45:52.237Z,15.63
2019-04-10T08:48:21.879Z,20.30
2019-04-10T08:50:52.932Z,16.07
2019-04-10T08:53:24.451Z,15.83
2019-04-10T08:55:56.694Z,18.65
2019-04-10T08:58:31.087Z,14.98
2019-04-10T09:01:05.145Z,13.65
2019-04-10T09:03:37.167Z,14.93
2019-04-10T09:06:11.311Z,15.13
2019-04-10T09:08:45.391Z,17.15
2019-04-10T09:11:24.664Z,15.60
2019-04-10T09:13:51.421Z,18.45
2019-04-10T09:16:28.748Z,14.35
2019-04-10T09:19:01.385Z,14.85
2019-04-10T09:21:32.316Z,14.95
2019-04-10T09:24:05.924Z,17.12
2019-04-10T09:29:13.992Z,17.12
2019-04-10T09:31:55.747Z,19.23
2019-04-10T09:34:27.585Z,23.02
2019-04-10T09:36:59.889Z,18.57
2019-04-10T09:39:31.758Z,18.40
2019-04-10T09:42:03.352Z,15.53
2019-04-10T09:44:36.139Z,20.62
2019-04-10T09:47:07.780Z,15.48
2019-04-10T09:49:43.174Z,15.43
2019-04-10T09:52:12.562Z,20.23
2019-04-10T09:54:44.208Z,15.08
2019-04-10T09:57:15.412Z,14.95
2019-04-10T09:59:47.307Z,17.80
2019-04-10T10:02:19.619Z,17.42
2019-04-10T10:04:50.991Z,19.98
2019-04-10T10:14:28.546Z,21.00
2019-04-10T10:17:04.362Z,16.35
2019-04-10T10:19:36.256Z,18.62
2019-04-10T10:22:07.633Z,19.42
2019-04-10T10:24:38.600Z,16.27
2019-04-10T10:27:13.602Z,13.58
2019-04-10T10:29:45.995Z,15.15
2019-04-10T10:32:17.400Z,16.23
2019-04-10T10:34:50.395Z,19.52
2019-04-10T10:37:22.176Z,20.92
2019-04-10T10:39:53.481Z,14.63
2019-04-10T10:42:25.085Z,13.72
2019-04-10T10:44:56.479Z,18.37
2019-04-10T10:47:29.231Z,15.88
2019-04-10T10:50:01.095Z,16.67
2019-04-10T10:52:33.078Z,18.17
2019-04-10T10:55:05.331Z,22.40
2019-04-10T10:57:37.411Z,17.92
2019-04-10T11:00:13.011Z,17.50
2019-04-10T11:02:43.536Z,19.10
2019-04-10T11:05:15.087Z,16.73
2019-04-10T11:07:47.288Z,17.52
2019-04-10T11:10:23.663Z,17.50
2019-04-10T11:12:53.444Z,21.70
2019-04-10T11:15:26.052Z,18.17
2019-04-10T11:17:57.839Z,19.55
2019-04-10T11:20:29.778Z,20.60
2019-04-10T11:23:02.787Z,21.48
2019-04-10T11:25:35.874Z,18.07
2019-04-10T11:28:07.702Z,20.05
2019-04-10T11:30:56.173Z,21.48
2019-04-10T11:33:28.395Z,24.72
2019-04-10T11:36:00.145Z,24.20
2019-04-10T11:38:33.525Z,25.37
2019-04-10T11:41:07.194Z,22.50
2019-04-10T11:43:37.613Z,20.27
2019-04-10T11:46:10.311Z,21.30
2019-04-10T11:48:44.718Z,24.05
2019-04-10T11:51:14.946Z,20.35
2019-04-10T11:56:21.051Z,22.82
2019-04-10T12:01:25.426Z,22.67
2019-04-10T12:03:58.016Z,20.82
2019-04-10T12:06:32.983Z,26.60
2019-04-10T12:09:37.703Z,22.40
2019-04-10T12:11:35.125Z,24.15
2019-04-10T12:14:07.678Z,21.97
2019-04-10T12:16:39.055Z,18.73
2019-04-10T12:19:10.968Z,26.27
2019-04-10T12:21:42.843Z,24.32
2019-04-10T12:24:14.050Z,28.32
2019-04-10T12:26:45.362Z,26.85
2019-04-10T12:29:16.663Z,22.70
2019-04-10T12:31:48.230Z,26.37
2019-04-10T12:34:20.220Z,22.55
2019-04-10T12:36:53.313Z,23.45
2019-04-10T12:39:24.858Z,20.62
2019-04-10T12:41:55.745Z,25.95
2019-04-10T12:44:27.159Z,16.97
2019-04-10T12:46:58.155Z,20.85
2019-04-10T12:49:29.732Z,22.55
2019-04-10T12:52:06.023Z,17.92
2019-04-10T12:54:40.203Z,19.57
2019-04-10T12:57:10.674Z,16.65
2019-04-10T12:59:41.885Z,20.77
2019-04-10T13:02:13.760Z,17.98
2019-04-10T13:04:45.366Z,19.12
2019-04-10T13:07:16.351Z,17.00
2019-04-10T13:09:48.509Z,21.55
2019-04-10T13:12:20.800Z,20.32
2019-04-10T13:14:53.415Z,19.87
2019-04-10T13:17:28.906Z,21.50
2019-04-10T13:19:59.992Z,20.60
2019-04-10T13:22:31.760Z,21.62
2019-04-10T13:25:02.800Z,20.85
2019-04-10T13:27:34.715Z,18.23
2019-04-10T13:30:11.255Z,18.23
2019-04-10T13:32:42.907Z,19.98
2019-04-10T13:35:13.982Z,21.95
2019-04-10T13:37:47.734Z,21.55
2019-04-10T13:40:21.898Z,21.87
2019-04-10T13:42:53.644Z,23.42
2019-04-10T13:45:24.783Z,21.55
2019-04-10T13:47:56.593Z,20.50
2019-04-10T13:50:27.587Z,25.08
2019-04-10T13:52:59.643Z,26.68
2019-04-10T13:55:32.635Z,21.73
2019-04-10T13:58:03.819Z,23.12
2019-04-10T14:00:38.754Z,19.75
2019-04-10T14:03:10.088Z,23.80
2019-04-10T14:05:43.413Z,19.70
2019-04-10T14:08:14.810Z,26.00
2019-04-10T14:10:46.713Z,23.70
2019-04-10T14:13:17.895Z,25.80
2019-04-10T14:15:48.998Z,22.58
2019-04-10T14:18:22.031Z,22.95
2019-04-10T14:20:53.702Z,26.25
2019-04-10T14:23:26.558Z,19.77
2019-04-10T14:26:00.478Z,21.85
2019-04-10T14:28:33.368Z,21.35
2019-04-10T14:31:05.993Z,25.88
2019-04-10T14:33:37.956Z,21.68
2019-04-10T14:36:08.968Z,26.15
2019-04-10T14:38:41.222Z,25.97
2019-04-10T14:41:13.637Z,24.85
2019-04-10T14:43:46.654Z,25.57
2019-04-10T14:46:20.656Z,22.02
2019-04-10T14:48:52.893Z,26.85
2019-04-10T14:51:25.069Z,22.75
2019-04-10T14:53:57.423Z,20.05
2019-04-10T14:56:28.417Z,20.27
2019-04-10T14:59:00.613Z,18.55
2019-04-10T15:01:33.556Z,20.05
2019-04-10T15:04:05.639Z,16.57
2019-04-10T15:06:37.456Z,18.27
2019-04-10T15:09:20.651Z,19.60
2019-04-10T15:11:44.141Z,25.72
2019-04-10T15:14:15.863Z,16.85
2019-04-10T15:16:53.447Z,17.90
2019-04-10T15:19:20.650Z,17.85
2019-04-10T15:21:53.924Z,22.62
2019-04-10T15:24:25.688Z,14.83
2019-04-10T15:26:57.156Z,18.85
2019-04-10T15:29:30.232Z,24.77
2019-04-10T15:32:01.663Z,18.77
2019-04-10T15:34:32.493Z,17.87
2019-04-10T15:37:04.591Z,20.00
2019-04-10T15:39:39.167Z,17.05
2019-04-10T15:42:09.859Z,18.05
2019-04-10T15:44:41.169Z,17.67
2019-04-10T15:47:18.402Z,18.85
2019-04-10T15:49:45.345Z,20.68
2019-04-10T15:52:16.356Z,20.30
2019-04-10T15:54:52.941Z,21.87
2019-04-10T15:57:24.857Z,16.77
2019-04-10T15:59:56.683Z,19.40
2019-04-10T16:02:27.963Z,23.80
2019-04-10T16:04:59.386Z,22.85
2019-04-10T16:07:30.827Z,19.90
2019-04-10T16:10:03.892Z,24.20
2019-04-10T16:12:38.221Z,25.45
2019-04-10T16:15:09.473Z,22.75
2019-04-10T16:17:41.947Z,24.40
2019-04-10T16:20:15.521Z,22.90
2019-04-10T16:22:48.863Z,24.92
2019-04-10T16:25:22.025Z,21.87
2019-04-10T16:27:53.581Z,18.20
2019-04-10T16:30:26.279Z,30.97
2019-04-10T16:32:58.590Z,26.57
2019-04-10T16:35:30.470Z,19.92
2019-04-10T16:38:02.345Z,22.02
2019-04-10T16:40:33.901Z,23.98
2019-04-10T16:43:06.106Z,20.37
2019-04-10T16:45:38.443Z,23.35
2019-04-10T16:48:10.570Z,22.20
2019-04-10T16:50:41.669Z,21.55
2019-04-10T16:53:13.766Z,21.42
2019-04-10T16:55:45.048Z,25.45
2019-04-10T16:58:16.067Z,21.82
2019-04-10T17:00:47.546Z,18.85
2019-04-10T17:03:19.671Z,22.60
2019-04-10T17:05:50.900Z,20.60
2019-04-10T17:08:22.096Z,20.08
2019-04-10T17:10:52.865Z,21.33
2019-04-10T17:13:24.634Z,21.77
2019-04-10T17:15:55.755Z,19.05
2019-04-10T17:18:27.462Z,26.95
2019-04-10T17:20:58.544Z,21.05
2019-04-10T17:23:29.584Z,24.95
2019-04-10T17:26:00.650Z,19.37
2019-04-10T17:28:32.308Z,23.27
2019-04-10T17:31:04.353Z,23.05
2019-04-10T17:33:36.285Z,20.75
2019-04-10T17:36:07.693Z,18.37
2019-04-10T17:38:40.972Z,19.40
2019-04-10T17:41:12.310Z,20.68
2019-04-10T17:43:43.473Z,22.93
2019-04-10T17:46:15.207Z,25.27
2019-04-10T17:48:46.259Z,21.85
2019-04-10T17:51:17.807Z,22.27
2019-04-10T17:53:49.471Z,19.10
2019-04-10T17:56:20.631Z,26.15
2019-04-10T17:58:51.999Z,23.55
2019-04-10T18:01:24.978Z,19.95
2019-04-10T18:03:58.960Z,23.00
2019-04-10T18:06:28.756Z,19.85
2019-04-10T18:08:59.614Z,21.12
2019-04-10T18:11:30.767Z,24.27
2019-04-10T18:14:02.770Z,19.90
2019-04-10T18:16:33.883Z,23.67
2019-04-10T18:19:06.327Z,24.87
2019-04-10T18:21:37.689Z,21.37
2019-04-10T18:24:08.723Z,21.20
2019-04-10T18:26:39.831Z,23.95
2019-04-10T18:29:10.900Z,21.33
2019-04-10T18:31:43.096Z,22.77
2019-04-10T18:34:15.505Z,22.85
2019-04-10T18:36:48.490Z,23.50
2019-04-10T18:39:19.872Z,24.37
2019-04-10T18:41:51.895Z,27.82
2019-04-10T18:44:25.360Z,24.82
2019-04-10T18:46:57.793Z,24.65
2019-04-10T18:49:29.507Z,25.55
2019-04-10T18:52:01.458Z,22.62
2019-04-10T18:54:34.009Z,23.67
2019-04-10T18:57:05.389Z,21.52
2019-04-10T18:59:36.487Z,26.62
2019-04-10T19:02:09.604Z,22.87
2019-04-10T19:04:43.256Z,20.85
2019-04-10T19:07:15.361Z,25.60
2019-04-10T19:09:58.877Z,24.72
2019-04-10T19:12:29.894Z,22.20
2019-04-10T19:15:02.013Z,27.27
2019-04-10T19:17:33.246Z,21.68
2019-04-10T19:20:04.372Z,26.95
2019-04-10T19:22:35.322Z,20.90
2019-04-10T19:25:08.170Z,22.60
2019-04-10T19:27:40.149Z,21.17
2019-04-10T19:30:13.100Z,26.10
2019-04-10T19:32:44.087Z,21.68
2019-04-10T19:35:15.395Z,18.80
2019-04-10T19:37:48.898Z,22.87
2019-04-10T19:40:19.369Z,21.02
2019-04-10T19:42:51.352Z,24.47
2019-04-10T19:45:22.303Z,22.02
2019-04-10T19:47:53.010Z,23.25
2019-04-10T19:50:24.006Z,21.10
2019-04-10T19:52:55.034Z,22.25
2019-04-10T19:55:27.491Z,22.48
2019-04-10T19:57:58.509Z,23.90
2019-04-10T20:00:31.006Z,22.45
2019-04-10T20:03:01.904Z,21.73
2019-04-10T20:05:33.691Z,20.17
2019-04-10T20:08:05.251Z,21.50
2019-04-10T20:10:37.317Z,23.52
2019-04-10T20:13:08.919Z,18.87
2019-04-10T20:15:40.092Z,21.17
2019-04-10T20:18:11.235Z,19.75
2019-04-10T20:20:42.244Z,24.15
2019-04-10T20:23:14.085Z,20.88
2019-04-10T20:25:46.237Z,22.80
2019-04-10T20:28:17.374Z,22.20
2019-04-10T20:30:49.027Z,22.00
2019-04-10T20:33:20.893Z,18.67
2019-04-10T20:35:52.848Z,20.97
2019-04-10T20:38:25.188Z,19.52
2019-04-10T20:40:56.498Z,19.07
2019-04-10T20:43:29.501Z,22.45
2019-04-10T20:46:00.269Z,23.12
2019-04-10T20:48:31.405Z,16.65
2019-04-10T20:51:02.483Z,23.85
2019-04-10T20:53:33.786Z,17.40
2019-04-10T20:56:05.981Z,18.00
2019-04-10T20:58:38.128Z,17.77
2019-04-10T21:01:10.301Z,20.97
2019-04-10T21:03:43.087Z,18.62
2019-04-10T21:06:14.045Z,17.45
2019-04-10T21:08:45.003Z,18.73
2019-04-10T21:11:16.011Z,18.92
2019-04-10T21:13:46.959Z,23.42
2019-04-10T21:16:19.703Z,22.80
2019-04-10T21:18:51.807Z,23.35
2019-04-10T21:21:22.857Z,21.07
2019-04-10T21:23:54.285Z,23.47
2019-04-10T21:26:25.540Z,19.05
2019-04-10T21:28:56.758Z,21.87
2019-04-10T21:31:29.613Z,18.82
2019-04-10T21:34:01.711Z,20.80
2019-04-10T21:36:32.936Z,24.92
2019-04-10T21:39:05.189Z,24.23
2019-04-10T21:41:36.909Z,21.77
2019-04-10T21:44:09.640Z,24.82
2019-04-10T21:46:40.989Z,19.73
2019-04-10T21:49:12.114Z,25.55
2019-04-10T21:51:43.140Z,23.80
2019-04-10T21:54:15.109Z,21.35
2019-04-10T21:56:46.273Z,24.55
2019-04-10T21:59:16.943Z,22.13
2019-04-10T22:01:48.789Z,19.25
2019-04-10T22:04:20.918Z,29.23
2019-04-10T22:06:53.715Z,26.85
2019-04-10T22:09:26.426Z,24.12
2019-04-10T22:11:58.694Z,24.37
2019-04-10T22:14:30.164Z,25.97
2019-04-10T22:17:02.268Z,20.37
2019-04-10T22:19:35.320Z,28.80
2019-04-10T22:22:06.299Z,23.90
2019-04-10T22:24:38.368Z,22.22
2019-04-10T22:27:09.476Z,21.75
2019-04-10T22:29:40.496Z,27.82
2019-04-10T22:32:14.176Z,23.05
2019-04-10T22:34:46.358Z,26.55
2019-04-10T22:37:17.533Z,26.85
2019-04-10T22:39:56.652Z,25.88
2019-04-10T22:42:36.600Z,22.73
2019-04-10T22:45:00.246Z,23.52
2019-04-10T22:47:32.524Z,23.65
2019-04-10T22:50:04.913Z,23.45
2019-04-10T22:52:36.661Z,23.12
2019-04-10T22:55:09.209Z,21.17
2019-04-10T22:57:41.532Z,24.85
2019-04-10T23:00:15.931Z,28.75
2019-04-10T23:02:47.093Z,23.92
2019-04-10T23:05:20.352Z,35.55
2019-04-10T23:07:53.397Z,26.10
2019-04-10T23:10:26.785Z,22.62
2019-04-10T23:13:04.857Z,28.10
2019-04-10T23:15:33.766Z,21.20
2019-04-10T23:18:05.499Z,24.02
2019-04-10T23:20:36.733Z,25.55
2019-04-10T23:23:08.555Z,24.27
2019-04-10T23:25:40.473Z,24.37
2019-04-10T23:28:11.618Z,30.35
2019-04-10T23:30:44.011Z,23.25
2019-04-10T23:33:15.536Z,25.23
2019-04-10T23:35:46.679Z,26.23
2019-04-10T23:38:17.603Z,25.45
2019-04-10T23:40:49.316Z,30.00
2019-04-10T23:43:22.348Z,24.10
2019-04-10T23:45:53.632Z,26.42
2019-04-10T23:48:28.752Z,32.28
2019-04-10T23:51:00.776Z,31.40
2019-04-10T23:53:32.812Z,32.13
2019-04-10T23:56:04.257Z,27.82
2019-04-10T23:58:35.200Z,40.38
